sensor_id;sensor_type;location;lat;lon;timestamp;temperature;humidity
3713;DHT22;1872;51.406;6.856;2024-03-06T00:01:52;4.70;99.90
3713;DHT22;1872;51.406;6.856;2024-03-06T00:04:18;4.70;99.90
3713;DHT22;1872;51.406;6.856;2024-03-06T00:06:43;4.70;99.90
3713;DHT22;1872;51.406;6.856;2024-03-06T00:09:09;4.70;99.90
3713;DHT22;1872;51.406;6.856;2024-03-06T00:11:35;4.60;99.90
3713;DHT22;1872;51.406;6.856;2024-03-06T00:14:03;4.60;99.90
3713;DHT22;1872;51.406;6.856;2024-03-06T00:16:33;4.60;99.90
3713;DHT22;1872;51.406;6.856;2024-03-06T00:18:59;4.60;99.90
3713;DHT22;1872;51.406;6.856;2024-03-06T00:21:25;4.60;99.90
3713;DHT22;1872;51.406;6.856;2024-03-06T00:23:51;4.60;99.90
3713;DHT22;1872;51.406;6.856;2024-03-06T00:26:16;4.60;99.90
3713;DHT22;1872;51.406;6.856;2024-03-06T00:28:42;4.60;99.90
3713;DHT22;1872;51.406;6.856;2024-03-06T00:31:08;4.60;99.90
3713;DHT22;1872;51.406;6.856;2024-03-06T00:33:33;4.70;99.90
3713;DHT22;1872;51.406;6.856;2024-03-06T00:35:59;4.70;99.90
3713;DHT22;1872;51.406;6.856;2024-03-06T00:38:25;4.70;99.90
3713;DHT22;1872;51.406;6.856;2024-03-06T00:40:50;4.70;99.90
3713;DHT22;1872;51.406;6.856;2024-03-06T00:43:16;4.70;99.90
3713;DHT22;1872;51.406;6.856;2024-03-06T00:45:42;4.70;99.90
3713;DHT22;1872;51.406;6.856;2024-03-06T00:48:08;4.70;99.90
3713;DHT22;1872;51.406;6.856;2024-03-06T00:50:33;4.70;99.90
3713;DHT22;1872;51.406;6.856;2024-03-06T00:52:59;4.70;99.90
3713;DHT22;1872;51.406;6.856;2024-03-06T00:55:25;4.70;99.90
3713;DHT22;1872;51.406;6.856;2024-03-06T00:57:52;4.80;99.90
3713;DHT22;1872;51.406;6.856;2024-03-06T01:00:18;4.70;99.90
3713;DHT22;1872;51.406;6.856;2024-03-06T01:02:44;4.70;99.90
3713;DHT22;1872;51.406;6.856;2024-03-06T01:05:09;4.70;99.90
3713;DHT22;1872;51.406;6.856;2024-03-06T01:07:37;4.70;99.90
3713;DHT22;1872;51.406;6.856;2024-03-06T01:10:04;4.70;99.90
3713;DHT22;1872;51.406;6.856;2024-03-06T01:12:32;4.60;99.90
3713;DHT22;1872;51.406;6.856;2024-03-06T01:14:58;4.60;99.90
3713;DHT22;1872;51.406;6.856;2024-03-06T01:17:24;4.60;99.90
3713;DHT22;1872;51.406;6.856;2024-03-06T01:19:50;4.60;99.90
3713;DHT22;1872;51.406;6.856;2024-03-06T01:22:16;4.50;99.90
3713;DHT22;1872;51.406;6.856;2024-03-06T01:24:42;4.50;99.90
3713;DHT22;1872;51.406;6.856;2024-03-06T01:27:07;4.40;99.90
3713;DHT22;1872;51.406;6.856;2024-03-06T01:29:33;4.40;99.90
3713;DHT22;1872;51.406;6.856;2024-03-06T01:31:59;4.40;99.90
3713;DHT22;1872;51.406;6.856;2024-03-06T01:34:25;4.40;99.90
3713;DHT22;1872;51.406;6.856;2024-03-06T01:36:52;4.40;99.90
3713;DHT22;1872;51.406;6.856;2024-03-06T01:39:18;4.40;99.90
3713;DHT22;1872;51.406;6.856;2024-03-06T01:41:45;4.40;99.90
3713;DHT22;1872;51.406;6.856;2024-03-06T01:44:12;4.40;99.90
3713;DHT22;1872;51.406;6.856;2024-03-06T01:46:38;4.40;99.90
3713;DHT22;1872;51.406;6.856;2024-03-06T01:49:04;4.40;99.90
3713;DHT22;1872;51.406;6.856;2024-03-06T01:51:30;4.40;99.90
3713;DHT22;1872;51.406;6.856;2024-03-06T01:53:57;4.40;99.90
3713;DHT22;1872;51.406;6.856;2024-03-06T01:56:23;4.40;99.90
3713;DHT22;1872;51.406;6.856;2024-03-06T01:58:50;4.40;99.90
3713;DHT22;1872;51.406;6.856;2024-03-06T02:01:16;4.30;99.90
3713;DHT22;1872;51.406;6.856;2024-03-06T02:03:43;4.30;99.90
3713;DHT22;1872;51.406;6.856;2024-03-06T02:06:11;4.30;99.90
3713;DHT22;1872;51.406;6.856;2024-03-06T02:08:37;4.30;99.90
3713;DHT22;1872;51.406;6.856;2024-03-06T02:11:03;4.30;99.90
3713;DHT22;1872;51.406;6.856;2024-03-06T02:13:30;4.30;99.90
3713;DHT22;1872;51.406;6.856;2024-03-06T02:15:55;4.30;99.90
3713;DHT22;1872;51.406;6.856;2024-03-06T02:18:21;4.30;99.90
3713;DHT22;1872;51.406;6.856;2024-03-06T02:20:48;4.30;99.90
3713;DHT22;1872;51.406;6.856;2024-03-06T02:23:15;4.30;99.90
3713;DHT22;1872;51.406;6.856;2024-03-06T02:25:44;4.30;99.90
3713;DHT22;1872;51.406;6.856;2024-03-06T02:28:11;4.30;99.90
3713;DHT22;1872;51.406;6.856;2024-03-06T02:30:37;4.30;99.90
3713;DHT22;1872;51.406;6.856;2024-03-06T02:33:03;4.30;99.90
3713;DHT22;1872;51.406;6.856;2024-03-06T02:35:32;4.20;99.90
3713;DHT22;1872;51.406;6.856;2024-03-06T02:38:03;4.20;99.90
3713;DHT22;1872;51.406;6.856;2024-03-06T02:40:30;4.20;99.90
3713;DHT22;1872;51.406;6.856;2024-03-06T02:42:56;4.10;99.90
3713;DHT22;1872;51.406;6.856;2024-03-06T02:45:21;4.10;99.90
3713;DHT22;1872;51.406;6.856;2024-03-06T02:47:47;4.10;99.90
3713;DHT22;1872;51.406;6.856;2024-03-06T02:50:13;4.10;99.90
3713;DHT22;1872;51.406;6.856;2024-03-06T02:52:39;4.00;99.90
3713;DHT22;1872;51.406;6.856;2024-03-06T02:55:06;4.00;99.90
3713;DHT22;1872;51.406;6.856;2024-03-06T02:57:32;4.00;99.90
3713;DHT22;1872;51.406;6.856;2024-03-06T02:59:58;4.00;99.90
3713;DHT22;1872;51.406;6.856;2024-03-06T03:02:24;4.00;99.90
3713;DHT22;1872;51.406;6.856;2024-03-06T03:04:53;4.00;99.90
3713;DHT22;1872;51.406;6.856;2024-03-06T03:07:19;4.00;99.90
3713;DHT22;1872;51.406;6.856;2024-03-06T03:09:45;3.90;99.90
3713;DHT22;1872;51.406;6.856;2024-03-06T03:12:11;3.90;99.90
3713;DHT22;1872;51.406;6.856;2024-03-06T03:14:37;3.90;99.90
3713;DHT22;1872;51.406;6.856;2024-03-06T03:17:05;3.90;99.90
3713;DHT22;1872;51.406;6.856;2024-03-06T03:19:34;3.80;99.90
3713;DHT22;1872;51.406;6.856;2024-03-06T03:22:00;3.80;99.90
3713;DHT22;1872;51.406;6.856;2024-03-06T03:24:30;3.80;99.90
3713;DHT22;1872;51.406;6.856;2024-03-06T03:26:55;3.80;99.90
3713;DHT22;1872;51.406;6.856;2024-03-06T03:29:21;3.70;99.90
3713;DHT22;1872;51.406;6.856;2024-03-06T03:31:47;3.70;99.90
3713;DHT22;1872;51.406;6.856;2024-03-06T03:34:13;3.70;99.90
3713;DHT22;1872;51.406;6.856;2024-03-06T03:36:42;3.60;99.90
3713;DHT22;1872;51.406;6.856;2024-03-06T03:39:10;3.60;99.90
3713;DHT22;1872;51.406;6.856;2024-03-06T03:41:48;3.60;99.90
3713;DHT22;1872;51.406;6.856;2024-03-06T03:44:14;3.50;99.90
3713;DHT22;1872;51.406;6.856;2024-03-06T03:46:40;3.50;99.90
3713;DHT22;1872;51.406;6.856;2024-03-06T03:49:06;3.50;99.90
3713;DHT22;1872;51.406;6.856;2024-03-06T03:51:32;3.50;99.90
3713;DHT22;1872;51.406;6.856;2024-03-06T03:53:58;3.50;99.90
3713;DHT22;1872;51.406;6.856;2024-03-06T03:56:23;3.50;99.90
3713;DHT22;1872;51.406;6.856;2024-03-06T03:58:49;3.50;99.90
3713;DHT22;1872;51.406;6.856;2024-03-06T04:01:15;3.50;99.90
3713;DHT22;1872;51.406;6.856;2024-03-06T04:03:40;3.50;99.90
3713;DHT22;1872;51.406;6.856;2024-03-06T04:06:08;3.50;99.90
3713;DHT22;1872;51.406;6.856;2024-03-06T04:08:34;3.40;99.90
3713;DHT22;1872;51.406;6.856;2024-03-06T04:10:59;3.40;99.90
3713;DHT22;1872;51.406;6.856;2024-03-06T04:13:26;3.40;99.90
3713;DHT22;1872;51.406;6.856;2024-03-06T04:15:51;3.40;99.90
3713;DHT22;1872;51.406;6.856;2024-03-06T04:18:17;3.40;99.90
3713;DHT22;1872;51.406;6.856;2024-03-06T04:20:43;3.30;99.90
3713;DHT22;1872;51.406;6.856;2024-03-06T04:23:09;3.30;99.90
3713;DHT22;1872;51.406;6.856;2024-03-06T04:25:34;3.30;99.90
3713;DHT22;1872;51.406;6.856;2024-03-06T04:28:00;3.30;99.90
3713;DHT22;1872;51.406;6.856;2024-03-06T04:30:27;3.30;99.90
3713;DHT22;1872;51.406;6.856;2024-03-06T04:32:53;3.30;99.90
3713;DHT22;1872;51.406;6.856;2024-03-06T04:35:19;3.30;99.90
3713;DHT22;1872;51.406;6.856;2024-03-06T04:37:45;3.30;99.90
3713;DHT22;1872;51.406;6.856;2024-03-06T04:40:11;3.30;99.90
3713;DHT22;1872;51.406;6.856;2024-03-06T04:42:37;3.30;99.90
3713;DHT22;1872;51.406;6.856;2024-03-06T04:45:14;3.20;99.90
3713;DHT22;1872;51.406;6.856;2024-03-06T04:47:40;3.20;99.90
3713;DHT22;1872;51.406;6.856;2024-03-06T04:50:10;3.20;99.90
3713;DHT22;1872;51.406;6.856;2024-03-06T04:52:37;3.20;99.90
3713;DHT22;1872;51.406;6.856;2024-03-06T04:55:03;3.20;99.90
3713;DHT22;1872;51.406;6.856;2024-03-06T04:57:29;3.20;99.90
3713;DHT22;1872;51.406;6.856;2024-03-06T04:59:56;3.20;99.90
3713;DHT22;1872;51.406;6.856;2024-03-06T05:02:23;3.20;99.90
3713;DHT22;1872;51.406;6.856;2024-03-06T05:04:50;3.20;99.90
3713;DHT22;1872;51.406;6.856;2024-03-06T05:07:16;3.20;99.90
3713;DHT22;1872;51.406;6.856;2024-03-06T05:09:42;3.20;99.90
3713;DHT22;1872;51.406;6.856;2024-03-06T05:12:08;3.20;99.90
3713;DHT22;1872;51.406;6.856;2024-03-06T05:14:33;3.20;99.90
3713;DHT22;1872;51.406;6.856;2024-03-06T05:16:59;3.20;99.90
3713;DHT22;1872;51.406;6.856;2024-03-06T05:19:25;3.20;99.90
3713;DHT22;1872;51.406;6.856;2024-03-06T05:21:58;3.20;99.90
3713;DHT22;1872;51.406;6.856;2024-03-06T05:24:24;3.20;99.90
3713;DHT22;1872;51.406;6.856;2024-03-06T05:26:50;3.20;99.90
3713;DHT22;1872;51.406;6.856;2024-03-06T05:29:16;3.20;99.90
3713;DHT22;1872;51.406;6.856;2024-03-06T05:31:42;3.20;99.90
3713;DHT22;1872;51.406;6.856;2024-03-06T05:34:07;3.20;99.90
3713;DHT22;1872;51.406;6.856;2024-03-06T05:36:34;3.20;99.90
3713;DHT22;1872;51.406;6.856;2024-03-06T05:38:59;3.20;99.90
3713;DHT22;1872;51.406;6.856;2024-03-06T05:41:25;3.20;99.90
3713;DHT22;1872;51.406;6.856;2024-03-06T05:43:51;3.20;99.90
3713;DHT22;1872;51.406;6.856;2024-03-06T05:46:16;3.20;99.90
3713;DHT22;1872;51.406;6.856;2024-03-06T05:48:42;3.20;99.90
3713;DHT22;1872;51.406;6.856;2024-03-06T05:51:08;3.20;99.90
3713;DHT22;1872;51.406;6.856;2024-03-06T05:53:38;3.20;99.90
3713;DHT22;1872;51.406;6.856;2024-03-06T05:56:06;3.20;99.90
3713;DHT22;1872;51.406;6.856;2024-03-06T05:58:32;3.20;99.90
3713;DHT22;1872;51.406;6.856;2024-03-06T06:01:03;3.30;99.90
3713;DHT22;1872;51.406;6.856;2024-03-06T06:03:29;3.30;99.90
3713;DHT22;1872;51.406;6.856;2024-03-06T06:05:56;3.40;99.90
3713;DHT22;1872;51.406;6.856;2024-03-06T06:08:22;3.40;99.90
3713;DHT22;1872;51.406;6.856;2024-03-06T06:10:48;3.40;99.90
3713;DHT22;1872;51.406;6.856;2024-03-06T06:13:13;3.40;99.90
3713;DHT22;1872;51.406;6.856;2024-03-06T06:15:40;3.40;99.90
3713;DHT22;1872;51.406;6.856;2024-03-06T06:18:07;3.40;99.90
3713;DHT22;1872;51.406;6.856;2024-03-06T06:20:33;3.40;99.90
3713;DHT22;1872;51.406;6.856;2024-03-06T06:22:59;3.50;99.90
3713;DHT22;1872;51.406;6.856;2024-03-06T06:25:24;3.40;99.90
3713;DHT22;1872;51.406;6.856;2024-03-06T06:27:50;3.40;99.90
3713;DHT22;1872;51.406;6.856;2024-03-06T06:30:16;3.40;99.90
3713;DHT22;1872;51.406;6.856;2024-03-06T06:32:42;3.40;99.90
3713;DHT22;1872;51.406;6.856;2024-03-06T06:35:09;3.40;99.90
3713;DHT22;1872;51.406;6.856;2024-03-06T06:37:35;3.40;99.90
3713;DHT22;1872;51.406;6.856;2024-03-06T06:40:02;3.40;99.90
3713;DHT22;1872;51.406;6.856;2024-03-06T06:42:32;3.40;99.90
3713;DHT22;1872;51.406;6.856;2024-03-06T06:44:59;3.40;99.90
3713;DHT22;1872;51.406;6.856;2024-03-06T06:47:25;3.40;99.90
3713;DHT22;1872;51.406;6.856;2024-03-06T06:49:50;3.40;99.90
3713;DHT22;1872;51.406;6.856;2024-03-06T06:52:16;3.40;99.90
3713;DHT22;1872;51.406;6.856;2024-03-06T06:54:42;3.50;99.90
3713;DHT22;1872;51.406;6.856;2024-03-06T06:57:08;3.50;99.90
3713;DHT22;1872;51.406;6.856;2024-03-06T06:59:34;3.60;99.90
3713;DHT22;1872;51.406;6.856;2024-03-06T07:02:00;3.60;99.90
3713;DHT22;1872;51.406;6.856;2024-03-06T07:04:26;3.70;99.90
3713;DHT22;1872;51.406;6.856;2024-03-06T07:06:53;3.70;99.90
3713;DHT22;1872;51.406;6.856;2024-03-06T07:09:19;3.70;99.90
3713;DHT22;1872;51.406;6.856;2024-03-06T07:11:45;3.80;99.90
3713;DHT22;1872;51.406;6.856;2024-03-06T07:14:12;3.90;99.90
3713;DHT22;1872;51.406;6.856;2024-03-06T07:16:45;3.90;99.90
3713;DHT22;1872;51.406;6.856;2024-03-06T07:19:11;4.00;99.90
3713;DHT22;1872;51.406;6.856;2024-03-06T07:21:37;4.10;99.90
3713;DHT22;1872;51.406;6.856;2024-03-06T07:24:03;4.20;99.90
3713;DHT22;1872;51.406;6.856;2024-03-06T07:26:33;4.30;99.90
3713;DHT22;1872;51.406;6.856;2024-03-06T07:28:59;4.30;99.90
3713;DHT22;1872;51.406;6.856;2024-03-06T07:31:25;4.40;99.90
3713;DHT22;1872;51.406;6.856;2024-03-06T07:33:51;4.50;99.90
3713;DHT22;1872;51.406;6.856;2024-03-06T07:36:16;4.60;99.90
3713;DHT22;1872;51.406;6.856;2024-03-06T07:38:42;4.70;99.90
3713;DHT22;1872;51.406;6.856;2024-03-06T07:41:08;4.80;99.90
3713;DHT22;1872;51.406;6.856;2024-03-06T07:43:35;4.90;99.90
3713;DHT22;1872;51.406;6.856;2024-03-06T07:46:01;5.00;99.90
3713;DHT22;1872;51.406;6.856;2024-03-06T07:48:26;5.10;99.90
3713;DHT22;1872;51.406;6.856;2024-03-06T07:50:52;5.20;99.90
3713;DHT22;1872;51.406;6.856;2024-03-06T07:53:18;5.30;99.90
3713;DHT22;1872;51.406;6.856;2024-03-06T07:55:43;5.40;99.90
3713;DHT22;1872;51.406;6.856;2024-03-06T07:58:09;5.50;99.90
3713;DHT22;1872;51.406;6.856;2024-03-06T08:00:37;5.60;99.90
3713;DHT22;1872;51.406;6.856;2024-03-06T08:03:03;5.60;99.90
3713;DHT22;1872;51.406;6.856;2024-03-06T08:05:29;5.70;99.90
3713;DHT22;1872;51.406;6.856;2024-03-06T08:07:55;5.70;99.90
3713;DHT22;1872;51.406;6.856;2024-03-06T08:10:21;5.80;99.90
3713;DHT22;1872;51.406;6.856;2024-03-06T08:12:46;5.90;99.90
3713;DHT22;1872;51.406;6.856;2024-03-06T08:15:15;6.00;99.90
3713;DHT22;1872;51.406;6.856;2024-03-06T08:17:44;6.10;99.90
3713;DHT22;1872;51.406;6.856;2024-03-06T08:20:11;6.10;99.90
3713;DHT22;1872;51.406;6.856;2024-03-06T08:22:38;6.20;99.90
3713;DHT22;1872;51.406;6.856;2024-03-06T08:25:12;6.40;99.90
3713;DHT22;1872;51.406;6.856;2024-03-06T08:27:42;6.40;99.90
3713;DHT22;1872;51.406;6.856;2024-03-06T08:30:08;6.50;99.90
3713;DHT22;1872;51.406;6.856;2024-03-06T08:32:35;6.60;99.90
3713;DHT22;1872;51.406;6.856;2024-03-06T08:35:05;6.70;99.90
3713;DHT22;1872;51.406;6.856;2024-03-06T08:37:32;6.80;99.90
3713;DHT22;1872;51.406;6.856;2024-03-06T08:39:59;6.90;99.90
3713;DHT22;1872;51.406;6.856;2024-03-06T08:42:25;7.00;99.90
3713;DHT22;1872;51.406;6.856;2024-03-06T08:44:51;7.10;99.90
3713;DHT22;1872;51.406;6.856;2024-03-06T08:47:16;7.20;99.90
3713;DHT22;1872;51.406;6.856;2024-03-06T08:49:42;7.20;99.90
3713;DHT22;1872;51.406;6.856;2024-03-06T08:52:08;7.30;99.90
3713;DHT22;1872;51.406;6.856;2024-03-06T08:54:35;7.40;99.90
3713;DHT22;1872;51.406;6.856;2024-03-06T08:57:03;7.40;99.90
3713;DHT22;1872;51.406;6.856;2024-03-06T08:59:29;7.40;99.90
3713;DHT22;1872;51.406;6.856;2024-03-06T09:01:55;7.40;99.90
3713;DHT22;1872;51.406;6.856;2024-03-06T09:04:21;7.50;99.90
3713;DHT22;1872;51.406;6.856;2024-03-06T09:06:47;7.50;99.90
3713;DHT22;1872;51.406;6.856;2024-03-06T09:09:14;7.50;99.90
3713;DHT22;1872;51.406;6.856;2024-03-06T09:11:43;7.60;99.90
3713;DHT22;1872;51.406;6.856;2024-03-06T09:14:09;7.60;99.90
3713;DHT22;1872;51.406;6.856;2024-03-06T09:16:36;7.60;99.90
3713;DHT22;1872;51.406;6.856;2024-03-06T09:19:02;7.70;99.90
3713;DHT22;1872;51.406;6.856;2024-03-06T09:21:28;7.80;99.90
3713;DHT22;1872;51.406;6.856;2024-03-06T09:23:54;7.80;99.90
3713;DHT22;1872;51.406;6.856;2024-03-06T09:26:20;7.80;99.90
3713;DHT22;1872;51.406;6.856;2024-03-06T09:28:48;7.90;99.90
3713;DHT22;1872;51.406;6.856;2024-03-06T09:31:15;7.90;99.90
3713;DHT22;1872;51.406;6.856;2024-03-06T09:33:41;7.90;99.90
3713;DHT22;1872;51.406;6.856;2024-03-06T09:36:10;8.00;99.90
3713;DHT22;1872;51.406;6.856;2024-03-06T09:38:35;8.00;99.90
3713;DHT22;1872;51.406;6.856;2024-03-06T09:41:03;8.10;99.90
3713;DHT22;1872;51.406;6.856;2024-03-06T09:43:29;8.10;99.90
3713;DHT22;1872;51.406;6.856;2024-03-06T09:45:56;8.20;99.90
3713;DHT22;1872;51.406;6.856;2024-03-06T09:48:22;8.30;99.90
3713;DHT22;1872;51.406;6.856;2024-03-06T09:50:49;8.30;99.90
3713;DHT22;1872;51.406;6.856;2024-03-06T09:53:18;8.40;99.90
3713;DHT22;1872;51.406;6.856;2024-03-06T09:55:46;8.40;99.90
3713;DHT22;1872;51.406;6.856;2024-03-06T09:58:13;8.40;99.90
3713;DHT22;1872;51.406;6.856;2024-03-06T10:00:39;8.50;99.90
3713;DHT22;1872;51.406;6.856;2024-03-06T10:03:05;8.60;99.90
3713;DHT22;1872;51.406;6.856;2024-03-06T10:05:31;8.60;99.90
3713;DHT22;1872;51.406;6.856;2024-03-06T10:08:00;8.60;99.90
3713;DHT22;1872;51.406;6.856;2024-03-06T10:10:26;8.60;99.90
3713;DHT22;1872;51.406;6.856;2024-03-06T10:12:52;8.70;99.90
3713;DHT22;1872;51.406;6.856;2024-03-06T10:15:18;8.70;99.90
3713;DHT22;1872;51.406;6.856;2024-03-06T10:17:44;8.70;99.90
3713;DHT22;1872;51.406;6.856;2024-03-06T10:20:24;8.70;99.90
3713;DHT22;1872;51.406;6.856;2024-03-06T10:22:51;8.70;99.90
3713;DHT22;1872;51.406;6.856;2024-03-06T10:25:22;8.80;99.90
3713;DHT22;1872;51.406;6.856;2024-03-06T10:28:08;8.90;99.90
3713;DHT22;1872;51.406;6.856;2024-03-06T10:30:35;8.90;99.90
3713;DHT22;1872;51.406;6.856;2024-03-06T10:33:03;9.10;99.90
3713;DHT22;1872;51.406;6.856;2024-03-06T10:35:29;9.10;99.90
3713;DHT22;1872;51.406;6.856;2024-03-06T10:37:55;9.20;99.90
3713;DHT22;1872;51.406;6.856;2024-03-06T10:40:22;9.30;99.90
3713;DHT22;1872;51.406;6.856;2024-03-06T10:42:48;9.40;99.90
3713;DHT22;1872;51.406;6.856;2024-03-06T10:45:15;9.50;99.90
3713;DHT22;1872;51.406;6.856;2024-03-06T10:47:45;9.50;99.90
3713;DHT22;1872;51.406;6.856;2024-03-06T10:50:15;9.50;99.90
3713;DHT22;1872;51.406;6.856;2024-03-06T10:52:41;9.60;99.90
3713;DHT22;1872;51.406;6.856;2024-03-06T10:55:08;9.60;99.90
3713;DHT22;1872;51.406;6.856;2024-03-06T10:57:37;9.50;99.90
3713;DHT22;1872;51.406;6.856;2024-03-06T11:00:04;9.60;99.90
3713;DHT22;1872;51.406;6.856;2024-03-06T11:02:31;9.60;99.90
3713;DHT22;1872;51.406;6.856;2024-03-06T11:04:57;9.70;99.90
3713;DHT22;1872;51.406;6.856;2024-03-06T11:07:23;9.70;99.90
3713;DHT22;1872;51.406;6.856;2024-03-06T11:09:50;9.70;99.90
3713;DHT22;1872;51.406;6.856;2024-03-06T11:12:35;9.70;99.90
3713;DHT22;1872;51.406;6.856;2024-03-06T11:15:18;9.70;99.90
3713;DHT22;1872;51.406;6.856;2024-03-06T11:17:46;9.60;99.90
3713;DHT22;1872;51.406;6.856;2024-03-06T11:20:19;9.70;99.90
3713;DHT22;1872;51.406;6.856;2024-03-06T11:23:03;9.60;99.90
3713;DHT22;1872;51.406;6.856;2024-03-06T11:28:30;9.50;99.90
3713;DHT22;1872;51.406;6.856;2024-03-06T11:31:08;9.50;99.90
3713;DHT22;1872;51.406;6.856;2024-03-06T11:33:47;9.40;99.90
3713;DHT22;1872;51.406;6.856;2024-03-06T11:41:24;9.30;99.90
3713;DHT22;1872;51.406;6.856;2024-03-06T11:43:50;9.30;99.90
3713;DHT22;1872;51.406;6.856;2024-03-06T11:46:19;9.30;99.90
3713;DHT22;1872;51.406;6.856;2024-03-06T11:48:53;9.30;99.90
3713;DHT22;1872;51.406;6.856;2024-03-06T11:51:19;9.30;99.90
3713;DHT22;1872;51.406;6.856;2024-03-06T11:53:45;9.30;99.90
3713;DHT22;1872;51.406;6.856;2024-03-06T11:56:11;9.30;99.90
3713;DHT22;1872;51.406;6.856;2024-03-06T11:58:37;9.40;99.90
3713;DHT22;1872;51.406;6.856;2024-03-06T12:01:03;9.40;99.90
3713;DHT22;1872;51.406;6.856;2024-03-06T12:03:29;9.40;99.90
3713;DHT22;1872;51.406;6.856;2024-03-06T12:05:56;9.40;99.90
3713;DHT22;1872;51.406;6.856;2024-03-06T12:08:21;9.40;99.90
3713;DHT22;1872;51.406;6.856;2024-03-06T12:10:47;9.50;99.90
3713;DHT22;1872;51.406;6.856;2024-03-06T12:13:13;9.50;99.90
3713;DHT22;1872;51.406;6.856;2024-03-06T12:15:43;9.50;99.90
3713;DHT22;1872;51.406;6.856;2024-03-06T12:18:09;9.60;99.90
3713;DHT22;1872;51.406;6.856;2024-03-06T12:20:39;9.60;99.90
3713;DHT22;1872;51.406;6.856;2024-03-06T12:23:06;9.60;99.90
3713;DHT22;1872;51.406;6.856;2024-03-06T12:25:31;9.60;99.90
3713;DHT22;1872;51.406;6.856;2024-03-06T12:28:07;9.70;99.90
3713;DHT22;1872;51.406;6.856;2024-03-06T12:30:41;9.70;99.90
3713;DHT22;1872;51.406;6.856;2024-03-06T12:33:16;9.70;99.90
3713;DHT22;1872;51.406;6.856;2024-03-06T12:35:42;9.80;99.90
3713;DHT22;1872;51.406;6.856;2024-03-06T12:38:15;9.70;99.90
3713;DHT22;1872;51.406;6.856;2024-03-06T12:40:44;9.80;99.90
3713;DHT22;1872;51.406;6.856;2024-03-06T12:43:09;9.90;99.90
3713;DHT22;1872;51.406;6.856;2024-03-06T12:45:37;9.90;99.90
3713;DHT22;1872;51.406;6.856;2024-03-06T12:48:04;9.90;99.90
3713;DHT22;1872;51.406;6.856;2024-03-06T12:50:32;10.00;99.90
3713;DHT22;1872;51.406;6.856;2024-03-06T12:52:57;10.00;99.90
3713;DHT22;1872;51.406;6.856;2024-03-06T12:55:23;10.00;99.90
3713;DHT22;1872;51.406;6.856;2024-03-06T12:57:49;10.10;99.90
3713;DHT22;1872;51.406;6.856;2024-03-06T13:00:16;10.10;99.90
3713;DHT22;1872;51.406;6.856;2024-03-06T13:02:45;10.20;99.90
3713;DHT22;1872;51.406;6.856;2024-03-06T13:05:11;10.30;99.90
3713;DHT22;1872;51.406;6.856;2024-03-06T13:07:38;10.30;99.90
3713;DHT22;1872;51.406;6.856;2024-03-06T13:10:05;10.40;99.90
3713;DHT22;1872;51.406;6.856;2024-03-06T13:12:31;10.40;99.90
3713;DHT22;1872;51.406;6.856;2024-03-06T13:14:57;10.50;99.90
3713;DHT22;1872;51.406;6.856;2024-03-06T13:17:23;10.50;99.90
3713;DHT22;1872;51.406;6.856;2024-03-06T13:19:49;10.50;99.90
3713;DHT22;1872;51.406;6.856;2024-03-06T13:22:15;10.60;99.90
3713;DHT22;1872;51.406;6.856;2024-03-06T13:24:41;10.70;99.90
3713;DHT22;1872;51.406;6.856;2024-03-06T13:27:06;10.70;99.90
3713;DHT22;1872;51.406;6.856;2024-03-06T13:29:33;10.80;99.90
3713;DHT22;1872;51.406;6.856;2024-03-06T13:31:59;10.80;99.90
3713;DHT22;1872;51.406;6.856;2024-03-06T13:34:25;10.90;99.90
3713;DHT22;1872;51.406;6.856;2024-03-06T13:36:50;11.00;99.90
3713;DHT22;1872;51.406;6.856;2024-03-06T13:39:16;11.10;99.90
3713;DHT22;1872;51.406;6.856;2024-03-06T13:41:42;11.20;99.90
3713;DHT22;1872;51.406;6.856;2024-03-06T13:44:07;11.20;99.90
3713;DHT22;1872;51.406;6.856;2024-03-06T13:46:34;11.20;99.90
3713;DHT22;1872;51.406;6.856;2024-03-06T13:48:59;11.20;99.90
3713;DHT22;1872;51.406;6.856;2024-03-06T13:51:26;11.20;99.90
3713;DHT22;1872;51.406;6.856;2024-03-06T13:53:53;11.10;99.90
3713;DHT22;1872;51.406;6.856;2024-03-06T13:56:18;11.10;99.90
3713;DHT22;1872;51.406;6.856;2024-03-06T13:58:44;11.00;99.90
3713;DHT22;1872;51.406;6.856;2024-03-06T14:01:10;11.00;99.90
3713;DHT22;1872;51.406;6.856;2024-03-06T14:03:35;10.90;99.90
3713;DHT22;1872;51.406;6.856;2024-03-06T14:06:03;10.90;99.90
3713;DHT22;1872;51.406;6.856;2024-03-06T14:08:29;10.90;99.90
3713;DHT22;1872;51.406;6.856;2024-03-06T14:10:55;10.80;99.90
3713;DHT22;1872;51.406;6.856;2024-03-06T14:13:21;10.80;99.90
3713;DHT22;1872;51.406;6.856;2024-03-06T14:15:48;10.80;99.90
3713;DHT22;1872;51.406;6.856;2024-03-06T14:18:15;10.80;99.90
3713;DHT22;1872;51.406;6.856;2024-03-06T14:20:40;10.80;99.90
3713;DHT22;1872;51.406;6.856;2024-03-06T14:23:06;10.80;99.90
3713;DHT22;1872;51.406;6.856;2024-03-06T14:25:33;10.80;99.90
3713;DHT22;1872;51.406;6.856;2024-03-06T14:28:04;10.80;99.90
3713;DHT22;1872;51.406;6.856;2024-03-06T14:30:30;10.90;99.90
3713;DHT22;1872;51.406;6.856;2024-03-06T14:32:55;10.90;99.90
3713;DHT22;1872;51.406;6.856;2024-03-06T14:35:21;11.00;99.90
3713;DHT22;1872;51.406;6.856;2024-03-06T14:37:46;11.10;99.90
3713;DHT22;1872;51.406;6.856;2024-03-06T14:40:14;11.10;99.90
3713;DHT22;1872;51.406;6.856;2024-03-06T14:42:39;11.20;99.90
3713;DHT22;1872;51.406;6.856;2024-03-06T14:45:05;11.20;99.90
3713;DHT22;1872;51.406;6.856;2024-03-06T14:47:32;11.30;99.90
3713;DHT22;1872;51.406;6.856;2024-03-06T14:49:58;11.30;99.90
3713;DHT22;1872;51.406;6.856;2024-03-06T14:52:24;11.30;99.90
3713;DHT22;1872;51.406;6.856;2024-03-06T14:54:51;11.30;99.90
3713;DHT22;1872;51.406;6.856;2024-03-06T14:57:17;11.30;99.90
3713;DHT22;1872;51.406;6.856;2024-03-06T14:59:43;11.30;99.90
3713;DHT22;1872;51.406;6.856;2024-03-06T15:02:08;11.20;99.90
3713;DHT22;1872;51.406;6.856;2024-03-06T15:04:34;11.20;99.90
3713;DHT22;1872;51.406;6.856;2024-03-06T15:07:00;11.10;99.90
3713;DHT22;1872;51.406;6.856;2024-03-06T15:09:26;11.10;99.90
3713;DHT22;1872;51.406;6.856;2024-03-06T15:11:52;11.10;99.90
3713;DHT22;1872;51.406;6.856;2024-03-06T15:14:19;11.00;99.90
3713;DHT22;1872;51.406;6.856;2024-03-06T15:16:45;11.00;99.90
3713;DHT22;1872;51.406;6.856;2024-03-06T15:19:11;11.00;99.90
3713;DHT22;1872;51.406;6.856;2024-03-06T15:21:37;11.00;99.90
3713;DHT22;1872;51.406;6.856;2024-03-06T15:24:03;11.00;99.90
3713;DHT22;1872;51.406;6.856;2024-03-06T15:26:29;11.00;99.90
3713;DHT22;1872;51.406;6.856;2024-03-06T15:28:56;11.00;99.90
3713;DHT22;1872;51.406;6.856;2024-03-06T15:31:22;11.00;99.90
3713;DHT22;1872;51.406;6.856;2024-03-06T15:33:48;11.00;99.90
3713;DHT22;1872;51.406;6.856;2024-03-06T15:36:15;10.90;99.90
3713;DHT22;1872;51.406;6.856;2024-03-06T15:38:41;10.90;99.90
3713;DHT22;1872;51.406;6.856;2024-03-06T15:41:07;10.90;99.90
3713;DHT22;1872;51.406;6.856;2024-03-06T15:43:38;10.90;99.90
3713;DHT22;1872;51.406;6.856;2024-03-06T15:46:04;10.80;99.90
3713;DHT22;1872;51.406;6.856;2024-03-06T15:48:30;10.80;99.90
3713;DHT22;1872;51.406;6.856;2024-03-06T15:50:58;10.80;99.90
3713;DHT22;1872;51.406;6.856;2024-03-06T15:53:25;10.80;99.90
3713;DHT22;1872;51.406;6.856;2024-03-06T15:55:54;10.90;99.90
3713;DHT22;1872;51.406;6.856;2024-03-06T15:58:20;10.80;99.90
3713;DHT22;1872;51.406;6.856;2024-03-06T16:00:45;10.80;99.90
3713;DHT22;1872;51.406;6.856;2024-03-06T16:03:11;10.90;99.90
3713;DHT22;1872;51.406;6.856;2024-03-06T16:05:38;10.80;99.90
3713;DHT22;1872;51.406;6.856;2024-03-06T16:08:04;10.80;99.90
3713;DHT22;1872;51.406;6.856;2024-03-06T16:10:29;10.80;99.90
3713;DHT22;1872;51.406;6.856;2024-03-06T16:12:56;10.80;99.90
3713;DHT22;1872;51.406;6.856;2024-03-06T16:15:21;10.90;99.90
3713;DHT22;1872;51.406;6.856;2024-03-06T16:17:47;10.90;99.90
3713;DHT22;1872;51.406;6.856;2024-03-06T16:20:13;10.80;99.90